Time;durP1;ratioP1;P1;durP2;ratioP2;P2;SDS_P1;SDS_P2;PMS_P1;PMS_P2;Temp;Humidity;BMP_temperature;BMP_pressure;BME280_temperature;BME280_humidity;BME280_pressure;Samples;Min_cycle;Max_cycle;Signal;HPM_P1;HPM_P2
2022/11/04 00:01:03;;;;;;;11.80;6.93;;;9.00;99.90;;;;;;5013200;28;20484;-75
2022/11/04 00:03:35;;;;;;;9.93;5.87;;;9.00;99.90;;;;;;5000743;28;20158;-75
2022/11/04 00:06:00;;;;;;;9.73;6.80;;;9.00;99.90;;;;;;4993289;28;20400;-75
2022/11/04 00:08:26;;;;;;;9.17;6.00;;;8.90;99.90;;;;;;4990644;28;20998;-75
2022/11/04 00:13:45;;;;;;;7.20;5.80;;;9.00;99.90;;;;;;4988254;28;20257;-74
2022/11/04 00:18:58;;;;;;;9.43;5.93;;;8.90;99.90;;;;;;4991932;28;20524;-74
2022/11/04 00:29:41;;;;;;;12.50;7.10;;;8.80;99.90;;;;;;4992196;28;20457;-74
2022/11/04 00:34:51;;;;;;;10.73;6.50;;;8.80;99.90;;;;;;4990754;28;20183;-76
2022/11/04 00:37:16;;;;;;;9.67;6.47;;;8.80;99.90;;;;;;4991954;28;20983;-74
2022/11/04 00:39:42;;;;;;;10.43;6.10;;;8.80;99.90;;;;;;4991714;28;20549;-74
2022/11/04 00:42:07;;;;;;;12.00;7.30;;;8.90;99.90;;;;;;4991846;28;20201;-73
2022/11/04 00:44:33;;;;;;;12.27;6.20;;;8.90;99.90;;;;;;4991792;28;20191;-74
2022/11/04 00:46:59;;;;;;;13.30;7.37;;;8.80;99.90;;;;;;4988561;28;20162;-73
2022/11/04 00:49:24;;;;;;;8.53;7.17;;;8.90;99.90;;;;;;4987012;28;20802;-75
2022/11/04 00:51:49;;;;;;;6.57;5.97;;;8.90;99.90;;;;;;4991391;28;20640;-74
2022/11/04 00:54:15;;;;;;;8.83;5.90;;;8.80;99.90;;;;;;4992484;28;20182;-74
2022/11/04 00:56:44;;;;;;;10.93;6.40;;;8.80;99.90;;;;;;4993917;28;20183;-74
2022/11/04 00:59:09;;;;;;;13.20;5.80;;;8.80;99.90;;;;;;5008769;28;20578;-73
2022/11/04 01:01:35;;;;;;;7.83;5.50;;;8.80;99.90;;;;;;4993163;28;21022;-75
2022/11/04 01:04:01;;;;;;;14.50;7.47;;;8.80;99.90;;;;;;4995640;28;20173;-74
2022/11/04 01:06:27;;;;;;;8.67;6.10;;;8.70;99.90;;;;;;4995246;28;20205;-74
2022/11/04 01:09:03;;;;;;;10.53;6.70;;;8.70;99.90;;;;;;4992227;28;20255;-73
2022/11/04 01:11:30;;;;;;;12.97;7.33;;;8.70;99.90;;;;;;4981294;28;20781;-74
2022/11/04 01:13:56;;;;;;;9.87;6.40;;;8.70;99.90;;;;;;4995238;28;20972;-74
2022/11/04 01:16:23;;;;;;;7.73;6.90;;;8.60;99.90;;;;;;4995167;28;20412;-74
2022/11/04 01:18:50;;;;;;;12.37;7.33;;;8.60;99.90;;;;;;4993045;28;20488;-76
2022/11/04 01:21:16;;;;;;;10.10;7.17;;;8.60;99.90;;;;;;4993754;28;20448;-75
2022/11/04 01:23:43;;;;;;;9.63;7.70;;;8.50;99.90;;;;;;4994529;28;20271;-74
2022/11/04 01:26:19;;;;;;;13.20;7.30;;;8.50;99.90;;;;;;4991888;28;20515;-75
2022/11/04 01:28:46;;;;;;;10.50;6.63;;;8.50;99.90;;;;;;4995322;28;20441;-75
2022/11/04 01:31:27;;;;;;;10.97;6.63;;;8.50;99.90;;;;;;4995858;28;20765;-75
2022/11/04 01:33:53;;;;;;;9.57;7.27;;;8.50;99.90;;;;;;4987326;28;20949;-74
2022/11/04 01:36:19;;;;;;;10.13;7.87;;;8.50;99.90;;;;;;4993751;28;20417;-74
2022/11/04 01:38:45;;;;;;;10.07;7.30;;;8.50;99.90;;;;;;4995607;28;20907;-75
2022/11/04 01:41:20;;;;;;;10.27;7.57;;;8.50;99.90;;;;;;4995122;28;20503;-75
2022/11/04 01:43:55;;;;;;;10.23;7.40;;;8.60;99.90;;;;;;4996187;28;20811;-74
2022/11/04 01:46:44;;;;;;;9.83;6.43;;;8.50;99.90;;;;;;4992896;28;20504;-75
2022/11/04 01:49:24;;;;;;;13.50;8.40;;;8.50;99.90;;;;;;4993030;28;20457;-74
2022/11/04 01:51:55;;;;;;;9.37;6.00;;;8.50;99.90;;;;;;4992158;28;20424;-73
2022/11/04 01:54:21;;;;;;;11.00;7.57;;;8.60;99.90;;;;;;4994039;28;20957;-75
2022/11/04 01:56:48;;;;;;;11.17;6.67;;;8.60;99.90;;;;;;4992367;28;20425;-75
2022/11/04 01:59:27;;;;;;;11.63;8.00;;;8.60;99.90;;;;;;4993670;28;20269;-76
2022/11/04 02:01:53;;;;;;;8.60;5.80;;;8.60;99.90;;;;;;4993372;28;20601;-74
2022/11/04 02:04:26;;;;;;;8.50;7.40;;;8.70;99.90;;;;;;4991498;28;20405;-74
2022/11/04 02:07:06;;;;;;;9.30;6.10;;;8.70;99.90;;;;;;4990373;28;20956;-75
2022/11/04 02:09:34;;;;;;;10.00;7.33;;;8.70;99.90;;;;;;4984885;28;20415;-74
2022/11/04 02:14:46;;;;;;;8.40;7.20;;;8.80;99.90;;;;;;4993599;28;21016;-75
2022/11/04 02:17:26;;;;;;;11.27;7.13;;;8.80;99.90;;;;;;4992752;28;20443;-75
2022/11/04 02:20:16;;;;;;;9.73;7.13;;;8.80;99.90;;;;;;4989743;28;20443;-74
2022/11/04 02:22:47;;;;;;;14.60;8.20;;;8.80;99.90;;;;;;4973082;28;20413;-74
2022/11/04 02:25:31;;;;;;;10.03;8.10;;;8.80;99.90;;;;;;4974194;28;20804;-75
2022/11/04 02:28:25;;;;;;;7.23;6.50;;;8.80;99.90;;;;;;4992156;28;20450;-74
2022/11/04 02:31:10;;;;;;;14.00;8.30;;;8.70;99.90;;;;;;4985033;28;20450;-74
2022/11/04 02:33:49;;;;;;;10.37;5.90;;;8.70;99.90;;;;;;4982862;28;20474;-74
2022/11/04 02:36:54;;;;;;;12.70;6.03;;;8.70;99.90;;;;;;4991160;28;20920;-73
2022/11/04 02:39:47;;;;;;;10.53;7.73;;;8.70;99.90;;;;;;5001325;28;20469;-74
2022/11/04 02:42:31;;;;;;;9.97;7.57;;;8.60;99.90;;;;;;4993115;28;20470;-74
2022/11/04 02:45:21;;;;;;;7.47;6.40;;;8.60;99.90;;;;;;4992359;28;20408;-74
2022/11/04 02:48:12;;;;;;;14.20;7.07;;;8.60;99.90;;;;;;4991491;28;20506;-75
2022/11/04 02:50:53;;;;;;;10.00;8.93;;;8.60;99.90;;;;;;4987593;28;20505;-75
2022/11/04 02:53:30;;;;;;;8.83;6.30;;;8.60;99.90;;;;;;4991632;28;20424;-73
2022/11/04 02:55:57;;;;;;;16.03;8.37;;;8.50;99.90;;;;;;4985879;28;20926;-73
2022/11/04 02:58:39;;;;;;;12.67;8.00;;;8.50;99.90;;;;;;4992340;28;20498;-73
2022/11/04 03:01:09;;;;;;;10.07;6.87;;;8.50;99.90;;;;;;4990887;28;20498;-74
2022/11/04 03:03:45;;;;;;;14.00;7.57;;;8.50;99.90;;;;;;4992333;28;20465;-74
2022/11/04 03:06:13;;;;;;;9.47;7.17;;;8.50;99.90;;;;;;5007205;28;20435;-74
2022/11/04 03:08:42;;;;;;;12.77;9.23;;;8.50;99.90;;;;;;4989294;28;20519;-73
2022/11/04 03:11:14;;;;;;;11.70;7.60;;;8.50;99.90;;;;;;4990852;28;20932;-74
2022/11/04 03:13:50;;;;;;;16.03;8.13;;;8.50;99.90;;;;;;4992524;28;20779;-74
2022/11/04 03:16:20;;;;;;;8.37;6.63;;;8.50;99.90;;;;;;4991184;28;20433;-76
2022/11/04 03:19:04;;;;;;;7.67;6.87;;;8.50;99.90;;;;;;4990583;28;20618;-75
2022/11/04 03:21:34;;;;;;;10.03;8.17;;;8.50;99.90;;;;;;4991114;28;20455;-74
2022/11/04 03:24:00;;;;;;;15.50;7.63;;;8.50;99.90;;;;;;4989424;28;20492;-75
2022/11/04 03:26:43;;;;;;;7.77;6.00;;;8.50;99.90;;;;;;4990849;28;20436;-73
2022/11/04 03:29:25;;;;;;;11.60;7.90;;;8.50;99.90;;;;;;4991945;28;20424;-73
2022/11/04 03:32:04;;;;;;;9.07;6.83;;;8.50;99.90;;;;;;4990144;28;20607;-74
2022/11/04 03:34:30;;;;;;;10.20;6.80;;;8.60;99.90;;;;;;4977511;28;20419;-75
2022/11/04 03:36:56;;;;;;;11.30;7.80;;;8.60;99.90;;;;;;4989844;28;20485;-74
2022/11/04 03:39:22;;;;;;;11.33;7.40;;;8.60;99.90;;;;;;4991882;28;20287;-74
2022/11/04 03:42:01;;;;;;;12.07;6.07;;;8.60;99.90;;;;;;4990629;28;20908;-74
2022/11/04 03:44:28;;;;;;;7.63;6.57;;;8.70;99.90;;;;;;4991513;28;20261;-74
2022/11/04 03:46:54;;;;;;;9.00;7.43;;;8.70;99.90;;;;;;4992092;28;20415;-75
2022/11/04 03:49:23;;;;;;;10.30;8.17;;;8.70;99.90;;;;;;4991658;28;20458;-74
2022/11/04 03:51:50;;;;;;;9.00;7.33;;;8.70;99.90;;;;;;4989628;28;20241;-75
2022/11/04 03:54:17;;;;;;;12.23;7.10;;;8.70;99.90;;;;;;4990583;28;20611;-74
2022/11/04 03:56:48;;;;;;;10.60;7.80;;;8.80;99.90;;;;;;4992649;28;20471;-74
2022/11/04 03:59:52;;;;;;;10.47;8.23;;;8.80;99.90;;;;;;4993127;28;20431;-74
2022/11/04 04:02:52;;;;;;;10.10;7.20;;;8.90;99.90;;;;;;4983489;28;20504;-75
2022/11/04 04:05:24;;;;;;;15.47;8.20;;;8.90;99.90;;;;;;4992821;28;20415;-73
2022/11/04 04:08:07;;;;;;;10.93;7.20;;;9.00;99.90;;;;;;4988586;28;21051;-74
2022/11/04 04:10:50;;;;;;;12.73;8.37;;;8.90;99.90;;;;;;4990655;28;20445;-75
2022/11/04 04:13:23;;;;;;;13.70;8.13;;;9.00;99.90;;;;;;4990763;28;20483;-75
2022/11/04 04:16:09;;;;;;;10.10;7.37;;;9.00;99.90;;;;;;4990486;28;20428;-74
2022/11/04 04:18:48;;;;;;;10.00;7.33;;;9.00;99.90;;;;;;5005470;28;20472;-73
2022/11/04 04:21:19;;;;;;;10.57;7.60;;;9.00;99.90;;;;;;5014213;28;20477;-74
2022/11/04 04:29:18;;;;;;;13.07;8.17;;;9.00;99.90;;;;;;4983074;28;20837;-75
2022/11/04 04:31:49;;;;;;;10.40;7.03;;;9.00;99.90;;;;;;4993542;28;20443;-74
2022/11/04 04:34:21;;;;;;;9.43;8.20;;;9.00;99.90;;;;;;4992863;28;20428;-74
2022/11/04 04:36:54;;;;;;;13.57;7.83;;;9.10;99.90;;;;;;4993908;28;20442;-74
2022/11/04 04:45:01;;;;;;;13.90;7.80;;;9.10;99.90;;;;;;4963448;28;20514;-75
2022/11/04 04:47:34;;;;;;;9.50;7.60;;;9.10;99.90;;;;;;4994944;28;20455;-73
2022/11/04 04:50:00;;;;;;;12.03;8.20;;;9.10;99.90;;;;;;4994349;28;20468;-74
2022/11/04 04:52:29;;;;;;;14.50;7.73;;;9.10;99.90;;;;;;4994602;28;20429;-74
2022/11/04 04:54:55;;;;;;;7.90;7.10;;;9.20;99.90;;;;;;4995647;28;20450;-74
2022/11/04 04:57:21;;;;;;;10.37;7.10;;;9.20;99.90;;;;;;4994493;28;20459;-74
2022/11/04 04:59:46;;;;;;;13.90;7.80;;;9.20;99.90;;;;;;4995951;28;20211;-74
2022/11/04 05:02:12;;;;;;;11.00;6.50;;;9.20;99.90;;;;;;4993654;28;20640;-74
2022/11/04 05:04:37;;;;;;;12.10;7.37;;;9.20;99.90;;;;;;4995632;28;20603;-74
2022/11/04 05:07:03;;;;;;;7.87;7.17;;;9.20;99.90;;;;;;4995806;28;20347;-74
2022/11/04 05:09:28;;;;;;;10.17;7.63;;;9.20;99.90;;;;;;4990832;28;20199;-74
2022/11/04 05:11:54;;;;;;;12.27;7.57;;;9.30;99.90;;;;;;4993584;28;20185;-75
2022/11/04 05:14:19;;;;;;;8.53;7.37;;;9.30;99.90;;;;;;4989569;28;20195;-74
2022/11/04 05:16:45;;;;;;;9.30;7.17;;;9.30;99.90;;;;;;4994331;28;20615;-75
2022/11/04 05:19:10;;;;;;;12.77;7.90;;;9.30;99.90;;;;;;4994600;28;20231;-75
2022/11/04 05:21:36;;;;;;;11.90;7.77;;;9.30;99.90;;;;;;4994008;28;20641;-75
2022/11/04 05:24:01;;;;;;;10.20;7.17;;;9.30;99.90;;;;;;4991830;28;20226;-76
2022/11/04 05:26:27;;;;;;;10.30;7.33;;;9.30;99.90;;;;;;4992703;28;20173;-73
2022/11/04 05:28:52;;;;;;;8.93;6.73;;;9.30;99.90;;;;;;4991996;28;20566;-74
2022/11/04 05:31:18;;;;;;;10.90;7.50;;;9.30;99.90;;;;;;4992501;28;20173;-74
2022/11/04 05:33:43;;;;;;;13.77;9.50;;;9.40;99.90;;;;;;4992990;28;20197;-73
2022/11/04 05:36:15;;;;;;;9.20;8.10;;;9.40;99.90;;;;;;4994427;28;20173;-75
2022/11/04 05:38:41;;;;;;;10.13;7.47;;;9.40;99.90;;;;;;4988417;28;20209;-75
2022/11/04 05:41:10;;;;;;;11.30;7.40;;;9.40;99.90;;;;;;4989647;28;20466;-74
2022/11/04 05:43:36;;;;;;;11.90;8.50;;;9.40;99.90;;;;;;4991686;28;20511;-74
2022/11/04 05:46:03;;;;;;;16.13;9.20;;;9.40;99.90;;;;;;4990729;28;20433;-73
2022/11/04 05:48:28;;;;;;;11.30;8.70;;;9.50;99.90;;;;;;4993960;28;20444;-74
2022/11/04 05:50:54;;;;;;;9.50;7.30;;;9.50;99.90;;;;;;4991030;28;20444;-74
2022/11/04 05:53:20;;;;;;;14.70;7.77;;;9.50;99.90;;;;;;4993580;28;20557;-75
2022/11/04 05:55:45;;;;;;;19.07;8.47;;;9.50;99.90;;;;;;4993804;28;20769;-74
2022/11/04 05:58:14;;;;;;;10.10;6.70;;;9.60;99.90;;;;;;4991154;28;20678;-73
2022/11/04 06:00:39;;;;;;;9.43;7.20;;;9.50;99.90;;;;;;4992371;28;20200;-74
2022/11/04 06:03:05;;;;;;;10.70;8.53;;;9.50;99.90;;;;;;4992322;28;20408;-74
2022/11/04 06:05:31;;;;;;;10.43;7.47;;;9.50;99.90;;;;;;4993310;28;20180;-74
2022/11/04 06:07:56;;;;;;;12.20;8.53;;;9.60;99.90;;;;;;4996342;28;20189;-73
2022/11/04 06:10:23;;;;;;;11.03;8.27;;;9.50;99.90;;;;;;4992914;28;20181;-73
2022/11/04 06:12:48;;;;;;;11.43;7.47;;;9.50;99.90;;;;;;4993884;28;20620;-72
2022/11/04 06:15:14;;;;;;;11.57;7.30;;;9.50;99.90;;;;;;4993506;28;20416;-71
2022/11/04 06:17:40;;;;;;;10.83;7.87;;;9.50;99.90;;;;;;4993597;28;20232;-72
2022/11/04 06:20:06;;;;;;;13.03;8.80;;;9.50;99.90;;;;;;4992509;28;20173;-72
2022/11/04 06:22:31;;;;;;;13.00;7.17;;;9.50;99.90;;;;;;4993941;28;20196;-71
2022/11/04 06:24:57;;;;;;;14.23;7.30;;;9.50;99.90;;;;;;4993696;28;20431;-72
2022/11/04 06:27:23;;;;;;;10.23;8.37;;;9.60;99.90;;;;;;4992208;28;20740;-71
2022/11/04 06:29:48;;;;;;;14.03;7.70;;;9.60;99.90;;;;;;4994227;28;20168;-71
2022/11/04 06:32:16;;;;;;;10.90;7.90;;;9.60;99.90;;;;;;4992155;28;20177;-71
2022/11/04 06:34:42;;;;;;;17.17;8.90;;;9.60;99.90;;;;;;4992315;28;20275;-73
2022/11/04 06:37:08;;;;;;;11.13;8.13;;;9.70;99.90;;;;;;4993036;28;20448;-75
2022/11/04 06:39:34;;;;;;;13.40;8.87;;;9.70;99.90;;;;;;4992730;28;20190;-71
2022/11/04 06:42:00;;;;;;;12.40;8.77;;;9.70;99.90;;;;;;4993724;28;21003;-74
2022/11/04 06:44:26;;;;;;;12.00;8.50;;;9.80;99.90;;;;;;4991107;28;20433;-71
2022/11/04 06:46:51;;;;;;;10.83;8.13;;;9.80;99.90;;;;;;4992461;28;20179;-72
2022/11/04 06:49:20;;;;;;;9.90;8.57;;;9.80;99.90;;;;;;4988272;28;20725;-72
2022/11/04 06:51:47;;;;;;;12.10;10.00;;;9.90;99.90;;;;;;4991921;28;20185;-71
2022/11/04 06:54:13;;;;;;;16.27;9.80;;;9.90;99.90;;;;;;4988067;28;20894;-72
2022/11/04 06:56:40;;;;;;;11.20;9.00;;;9.90;99.90;;;;;;4992057;28;20456;-72
2022/11/04 06:59:06;;;;;;;16.90;9.40;;;9.90;99.90;;;;;;4994257;28;20456;-71
2022/11/04 07:01:34;;;;;;;8.93;7.20;;;9.90;99.90;;;;;;4992389;28;20447;-73
2022/11/04 07:04:01;;;;;;;17.60;8.27;;;10.10;99.90;;;;;;4992639;28;20446;-73
2022/11/04 07:06:28;;;;;;;14.83;9.13;;;10.10;99.90;;;;;;4992117;28;20408;-71
2022/11/04 07:08:56;;;;;;;11.00;8.27;;;10.20;99.90;;;;;;4990833;28;20435;-71
2022/11/04 07:11:23;;;;;;;14.93;8.70;;;10.20;99.90;;;;;;4992247;28;20410;-73
2022/11/04 07:13:49;;;;;;;17.17;8.23;;;10.20;99.90;;;;;;4975008;28;20423;-74
2022/11/04 07:16:15;;;;;;;13.93;8.53;;;10.10;99.90;;;;;;4972793;28;20900;-73
2022/11/04 07:18:40;;;;;;;14.03;8.00;;;10.20;99.90;;;;;;4991055;28;20817;-73
2022/11/04 07:21:06;;;;;;;13.60;9.80;;;10.20;99.90;;;;;;4992318;28;20193;-72
2022/11/04 07:23:32;;;;;;;16.50;10.37;;;10.30;99.90;;;;;;4992741;28;20255;-71
2022/11/04 07:26:02;;;;;;;11.77;8.40;;;10.20;99.90;;;;;;4992573;28;20161;-72
2022/11/04 07:28:28;;;;;;;14.00;9.30;;;10.20;99.90;;;;;;4991327;28;20189;-73
2022/11/04 07:30:57;;;;;;;17.83;9.53;;;10.20;99.90;;;;;;4989809;28;20435;-73
2022/11/04 07:33:32;;;;;;;14.03;9.23;;;10.30;99.90;;;;;;4991938;28;20247;-73
2022/11/04 07:36:02;;;;;;;10.70;7.87;;;10.30;99.90;;;;;;4990461;28;20431;-73
2022/11/04 07:38:28;;;;;;;11.40;8.97;;;10.30;99.90;;;;;;4992564;28;20993;-73
2022/11/04 07:40:53;;;;;;;12.60;9.07;;;10.40;99.90;;;;;;4991228;28;20443;-73
2022/11/04 07:43:19;;;;;;;10.80;9.47;;;10.40;99.90;;;;;;4992531;28;20222;-72
2022/11/04 07:45:44;;;;;;;10.77;8.87;;;10.50;99.90;;;;;;4989182;28;20284;-72
2022/11/04 07:48:10;;;;;;;11.30;9.13;;;10.50;99.90;;;;;;4991713;28;20197;-73
2022/11/04 07:50:38;;;;;;;13.10;9.67;;;10.60;99.90;;;;;;4998329;28;20621;-72
2022/11/04 07:53:04;;;;;;;14.47;10.50;;;10.60;99.90;;;;;;5010950;28;20173;-72
2022/11/04 07:55:37;;;;;;;14.53;11.00;;;10.60;99.90;;;;;;4989397;28;20969;-74
2022/11/04 07:58:03;;;;;;;23.73;11.00;;;10.60;99.90;;;;;;4990898;28;20772;-72
2022/11/04 08:00:28;;;;;;;16.07;9.40;;;10.60;99.90;;;;;;4991193;28;20420;-72
2022/11/04 08:02:54;;;;;;;14.20;9.37;;;10.70;99.90;;;;;;4993926;28;20245;-73
2022/11/04 08:05:19;;;;;;;15.10;10.70;;;10.80;99.90;;;;;;4995463;28;20180;-72
2022/11/04 08:07:45;;;;;;;19.00;10.37;;;11.00;99.90;;;;;;4993112;28;20204;-73
2022/11/04 08:10:10;;;;;;;12.90;9.40;;;11.00;99.90;;;;;;4993647;28;20211;-72
2022/11/04 08:12:37;;;;;;;10.40;9.20;;;10.90;99.90;;;;;;4994730;28;20594;-73
2022/11/04 08:15:02;;;;;;;14.40;9.70;;;11.10;99.90;;;;;;4996044;28;20219;-72
2022/11/04 08:17:28;;;;;;;11.83;9.33;;;11.10;99.90;;;;;;4994929;28;20496;-72
2022/11/04 08:19:53;;;;;;;14.33;10.03;;;11.20;99.90;;;;;;4995738;28;20458;-73
2022/11/04 08:22:19;;;;;;;15.93;10.60;;;11.20;99.90;;;;;;4998180;28;20215;-72
2022/11/04 08:24:47;;;;;;;10.60;8.73;;;11.20;99.90;;;;;;4995185;28;20216;-71
2022/11/04 08:27:13;;;;;;;14.60;10.33;;;11.30;99.90;;;;;;5012429;28;20196;-72
2022/11/04 08:29:39;;;;;;;15.43;9.77;;;11.30;99.90;;;;;;5012866;28;20400;-72
2022/11/04 08:32:06;;;;;;;15.60;10.57;;;11.20;99.90;;;;;;5005332;28;20238;-73
2022/11/04 08:34:32;;;;;;;10.97;9.40;;;11.20;99.90;;;;;;4992979;28;20187;-72
2022/11/04 08:36:59;;;;;;;13.17;9.53;;;11.30;99.90;;;;;;4995905;28;20439;-72
2022/11/04 08:39:24;;;;;;;9.40;7.80;;;11.40;99.90;;;;;;5002512;28;20233;-72
2022/11/04 08:41:52;;;;;;;12.60;9.10;;;11.30;99.90;;;;;;4997562;28;20953;-73
2022/11/04 08:44:18;;;;;;;10.67;8.10;;;11.30;99.90;;;;;;4989954;28;20170;-72
2022/11/04 08:46:44;;;;;;;23.03;12.40;;;11.40;99.90;;;;;;4994262;28;20495;-71
2022/11/04 08:49:10;;;;;;;13.90;9.33;;;11.40;99.90;;;;;;4994130;28;20436;-72
2022/11/04 08:51:38;;;;;;;8.97;7.27;;;11.50;99.90;;;;;;4994876;28;20458;-72
2022/11/04 08:54:04;;;;;;;9.80;8.10;;;11.50;99.90;;;;;;4994600;28;20785;-70
2022/11/04 08:56:33;;;;;;;7.57;6.57;;;11.40;99.90;;;;;;4988783;28;20539;-72
2022/11/04 08:59:01;;;;;;;9.47;7.10;;;11.30;99.90;;;;;;4992700;28;20812;-71
2022/11/04 09:01:28;;;;;;;12.67;8.97;;;11.40;99.90;;;;;;4992829;28;20459;-74
2022/11/04 09:03:54;;;;;;;11.33;7.77;;;11.60;99.90;;;;;;5039584;23;20513;-68
2022/11/04 09:06:23;;;;;;;11.03;8.33;;;11.50;99.90;;;;;;5011946;28;20825;-68
2022/11/04 09:08:49;;;;;;;13.20;8.30;;;11.50;99.90;;;;;;5009875;28;20267;-69
2022/11/04 09:11:16;;;;;;;15.10;8.80;;;11.50;99.90;;;;;;4998150;28;20514;-69
2022/11/04 09:13:42;;;;;;;9.13;8.13;;;11.50;99.90;;;;;;5008213;28;20454;-69
2022/11/04 09:16:10;;;;;;;14.90;9.87;;;11.60;99.90;;;;;;5008604;28;20812;-69
2022/11/04 09:18:36;;;;;;;11.70;8.60;;;11.60;99.90;;;;;;5005416;28;20416;-69
2022/11/04 09:21:03;;;;;;;10.20;8.73;;;11.60;99.90;;;;;;5008536;28;20455;-69
2022/11/04 09:23:29;;;;;;;10.83;7.20;;;11.70;99.90;;;;;;5005399;28;20192;-69
2022/11/04 09:25:57;;;;;;;8.50;6.50;;;11.70;99.90;;;;;;5002106;28;20410;-69
2022/11/04 09:28:23;;;;;;;11.90;7.90;;;11.70;99.90;;;;;;5000140;28;20968;-69
2022/11/04 09:30:49;;;;;;;8.37;6.83;;;11.70;99.90;;;;;;5010564;28;20463;-69
2022/11/04 09:33:15;;;;;;;7.50;6.00;;;11.70;99.90;;;;;;5004813;28;20479;-69
2022/11/04 09:35:41;;;;;;;7.43;5.63;;;11.60;99.90;;;;;;5007518;28;20419;-69
2022/11/04 09:38:06;;;;;;;6.27;5.30;;;11.70;99.90;;;;;;5005735;28;20215;-69
2022/11/04 09:40:34;;;;;;;9.75;6.65;;;11.60;99.90;;;;;;5007493;28;20212;-69
2022/11/04 09:43:05;;;;;;;6.80;5.80;;;11.70;99.90;;;;;;5008042;28;20279;-69
2022/11/04 09:45:32;;;;;;;8.37;6.00;;;11.60;99.90;;;;;;5007487;28;20431;-70
2022/11/04 09:48:04;;;;;;;11.93;7.00;;;11.50;99.90;;;;;;5000276;28;20927;-69
2022/11/04 09:50:42;;;;;;;12.60;6.73;;;11.70;99.90;;;;;;5000642;28;20419;-70
2022/11/04 09:53:18;;;;;;;9.43;6.37;;;11.70;99.90;;;;;;5003054;28;20436;-68
2022/11/04 09:55:53;;;;;;;9.17;6.23;;;11.80;99.90;;;;;;5002986;28;20412;-69
2022/11/04 09:58:19;;;;;;;8.13;5.30;;;11.70;99.90;;;;;;5004425;28;21116;-69
2022/11/04 10:00:56;;;;;;;8.07;6.23;;;11.50;99.90;;;;;;5008345;28;20450;-70
2022/11/04 10:04:00;;;;;;;9.37;7.07;;;11.70;99.90;;;;;;5012277;28;20217;-69
2022/11/04 10:06:36;;;;;;;8.77;6.40;;;11.80;99.90;;;;;;5000148;28;20423;-69
2022/11/04 10:09:39;;;;;;;8.20;5.67;;;11.70;99.90;;;;;;5004074;28;20414;-69
2022/11/04 10:12:43;;;;;;;6.00;5.20;;;11.70;99.90;;;;;;5002630;28;20964;-68
2022/11/04 10:15:32;;;;;;;6.80;5.30;;;11.60;99.90;;;;;;5001366;28;20404;-69
2022/11/04 10:18:05;;;;;;;8.37;5.77;;;11.60;99.90;;;;;;5005471;28;20399;-68
2022/11/04 10:21:11;;;;;;;10.47;7.13;;;11.70;99.90;;;;;;5007287;28;20438;-69
2022/11/04 10:23:43;;;;;;;7.53;6.43;;;11.60;99.90;;;;;;5005575;28;20427;-69
2022/11/04 10:26:35;;;;;;;8.40;6.50;;;11.60;99.90;;;;;;5007597;28;21031;-68
2022/11/04 10:29:10;;;;;;;9.50;6.63;;;11.60;99.90;;;;;;4999748;28;20491;-68
2022/11/04 10:31:37;;;;;;;5.93;5.33;;;11.60;99.90;;;;;;5003510;28;20762;-68
2022/11/04 10:34:13;;;;;;;9.90;6.50;;;11.60;99.90;;;;;;5007127;28;20477;-68
2022/11/04 10:36:40;;;;;;;7.30;5.77;;;11.70;99.90;;;;;;5010995;28;20409;-68
2022/11/04 10:39:24;;;;;;;9.90;5.33;;;11.80;99.90;;;;;;5006076;28;20777;-68
2022/11/04 10:41:50;;;;;;;7.43;5.50;;;11.80;99.90;;;;;;5006876;28;20866;-69
2022/11/04 10:44:31;;;;;;;7.97;6.33;;;11.80;99.90;;;;;;4987861;28;20569;-71
2022/11/04 10:47:01;;;;;;;6.60;5.77;;;11.70;99.90;;;;;;5002070;28;20714;-68
2022/11/04 10:49:58;;;;;;;10.03;5.77;;;11.70;99.90;;;;;;4987495;28;20945;-68
2022/11/04 10:52:24;;;;;;;7.10;6.50;;;11.70;99.90;;;;;;4962606;28;20842;-68
2022/11/04 10:54:50;;;;;;;8.50;6.20;;;11.60;99.90;;;;;;5007014;28;20427;-68
2022/11/04 10:57:23;;;;;;;7.13;5.60;;;11.60;99.90;;;;;;5005051;28;20304;-68
2022/11/04 10:59:59;;;;;;;6.60;5.30;;;11.70;99.90;;;;;;5002180;28;20524;-68
2022/11/04 11:02:45;;;;;;;6.00;5.40;;;11.80;99.90;;;;;;4987793;28;20457;-68
2022/11/04 11:05:16;;;;;;;10.47;6.10;;;11.70;99.90;;;;;;5018282;28;20426;-69
2022/11/04 11:07:46;;;;;;;6.90;6.10;;;11.70;99.90;;;;;;5022478;28;20439;-68
2022/11/04 11:10:42;;;;;;;7.47;5.90;;;11.80;99.90;;;;;;5029975;28;20475;-69
2022/11/04 11:13:25;;;;;;;7.93;5.90;;;11.80;99.90;;;;;;5008806;28;20471;-68
2022/11/04 11:16:25;;;;;;;7.80;5.90;;;11.50;99.90;;;;;;5012204;28;20406;-69
2022/11/04 11:19:13;;;;;;;6.83;5.93;;;11.60;99.90;;;;;;5015041;28;20797;-68
2022/11/04 11:21:44;;;;;;;10.00;6.73;;;11.60;99.90;;;;;;5024889;28;20481;-68
2022/11/04 11:24:17;;;;;;;7.70;6.10;;;11.70;99.90;;;;;;5026820;28;20434;-68
2022/11/04 11:26:49;;;;;;;6.00;5.23;;;11.70;99.90;;;;;;5016707;28;20422;-70
2022/11/04 11:29:23;;;;;;;7.47;6.10;;;11.80;99.90;;;;;;5022838;28;20465;-69
2022/11/04 11:31:50;;;;;;;7.27;6.17;;;11.70;99.90;;;;;;5024720;28;20420;-67
2022/11/04 11:34:38;;;;;;;7.50;6.30;;;11.50;99.90;;;;;;5023311;28;20446;-70
2022/11/04 11:37:14;;;;;;;9.37;6.80;;;11.60;99.90;;;;;;5011749;28;20538;-68
2022/11/04 11:39:42;;;;;;;8.87;6.20;;;11.60;99.90;;;;;;5016525;28;20835;-68
2022/11/04 11:42:17;;;;;;;9.43;6.57;;;11.40;99.90;;;;;;5011822;28;20473;-68
2022/11/04 11:44:52;;;;;;;6.87;6.17;;;11.40;99.90;;;;;;5020043;28;20421;-69
2022/11/04 11:47:29;;;;;;;6.60;6.00;;;11.40;99.90;;;;;;5019032;28;20462;-68
2022/11/04 11:50:17;;;;;;;9.63;7.50;;;11.40;99.90;;;;;;5009730;28;20957;-68
2022/11/04 11:52:44;;;;;;;9.13;7.90;;;11.30;99.90;;;;;;5010021;28;20900;-68
2022/11/04 11:55:24;;;;;;;10.13;6.43;;;11.30;99.90;;;;;;5020454;28;20426;-69
2022/11/04 11:58:14;;;;;;;8.00;5.73;;;11.30;99.90;;;;;;5013119;28;20458;-70
2022/11/04 12:00:49;;;;;;;7.87;6.10;;;11.20;99.90;;;;;;5002073;28;20440;-68
2022/11/04 12:03:24;;;;;;;8.17;6.77;;;11.20;99.90;;;;;;5009788;28;20830;-68
2022/11/04 12:06:13;;;;;;;6.93;6.13;;;11.30;99.90;;;;;;5005151;28;20415;-68
2022/11/04 12:09:15;;;;;;;8.23;6.90;;;11.30;99.90;;;;;;5003467;28;20534;-67
2022/11/04 12:12:09;;;;;;;7.67;6.80;;;11.20;99.90;;;;;;4997854;28;20913;-68
2022/11/04 12:15:04;;;;;;;7.60;6.90;;;11.30;99.90;;;;;;4990756;28;20416;-68
2022/11/04 12:17:38;;;;;;;8.83;6.87;;;11.30;99.90;;;;;;4995932;28;20934;-68
2022/11/04 12:20:14;;;;;;;8.20;7.30;;;11.40;99.90;;;;;;5026943;28;20484;-69
2022/11/04 12:23:01;;;;;;;8.20;7.47;;;11.30;99.90;;;;;;5029863;28;20968;-68
2022/11/04 12:25:59;;;;;;;9.23;7.47;;;11.40;99.90;;;;;;5030627;28;21126;-69
2022/11/04 12:28:40;;;;;;;9.47;6.93;;;11.40;99.90;;;;;;5030740;28;20453;-68
2022/11/04 12:31:32;;;;;;;9.10;6.60;;;11.40;99.90;;;;;;4996786;28;20418;-68
2022/11/04 12:34:10;;;;;;;9.40;6.80;;;11.50;99.90;;;;;;4961393;28;20659;-68
2022/11/04 12:37:00;;;;;;;8.40;7.47;;;11.40;99.90;;;;;;5010105;28;20468;-69
2022/11/04 12:39:35;;;;;;;11.40;7.30;;;11.40;99.90;;;;;;5007491;28;20419;-69
2022/11/04 12:42:21;;;;;;;7.43;6.70;;;11.30;99.90;;;;;;5007058;28;20446;-69
2022/11/04 12:45:16;;;;;;;7.60;6.80;;;11.40;99.90;;;;;;5012141;28;20451;-69
2022/11/04 12:47:46;;;;;;;8.30;7.00;;;11.40;99.90;;;;;;5013068;28;20774;-69
2022/11/04 12:50:48;;;;;;;7.53;6.73;;;11.40;99.90;;;;;;5018673;28;20483;-70
2022/11/04 12:53:16;;;;;;;9.93;6.57;;;11.50;99.90;;;;;;5022758;28;20522;-68
2022/11/04 12:55:46;;;;;;;8.30;7.33;;;11.40;99.90;;;;;;5026765;28;20406;-69
2022/11/04 12:58:32;;;;;;;8.00;6.10;;;11.40;99.90;;;;;;5013194;28;20757;-68
2022/11/04 13:01:15;;;;;;;8.17;7.07;;;11.30;99.90;;;;;;5030040;28;20534;-69
2022/11/04 13:03:56;;;;;;;9.43;7.03;;;11.40;99.90;;;;;;5030116;28;20446;-69
2022/11/04 13:06:32;;;;;;;7.23;6.53;;;11.30;99.90;;;;;;5007271;28;20423;-69
2022/11/04 13:09:29;;;;;;;8.30;6.37;;;11.30;99.90;;;;;;5009183;28;20526;-68
2022/11/04 13:12:02;;;;;;;9.60;7.30;;;11.30;99.90;;;;;;5010494;28;20423;-69
2022/11/04 13:14:35;;;;;;;9.83;7.73;;;11.30;99.90;;;;;;5012094;28;20443;-69
2022/11/04 13:17:06;;;;;;;9.47;7.70;;;11.30;99.90;;;;;;5013199;28;20421;-69
2022/11/04 13:19:38;;;;;;;8.20;7.37;;;11.20;99.90;;;;;;5012759;28;20994;-69
2022/11/04 13:22:14;;;;;;;11.67;7.67;;;11.20;99.90;;;;;;5013981;28;20808;-68
2022/11/04 13:24:50;;;;;;;8.53;7.63;;;11.20;99.90;;;;;;5005350;28;20474;-68
2022/11/04 13:27:32;;;;;;;8.93;8.03;;;11.20;99.90;;;;;;5031099;28;20406;-68
2022/11/04 13:30:06;;;;;;;7.90;7.17;;;11.20;99.90;;;;;;5025409;28;20402;-68
2022/11/04 13:32:39;;;;;;;8.40;7.30;;;11.10;99.90;;;;;;5033151;28;20409;-69
2022/11/04 13:36:03;;;;;;;8.03;7.33;;;11.10;99.90;;;;;;5028435;28;20419;-68
2022/11/04 13:38:38;;;;;;;8.57;7.37;;;11.20;99.90;;;;;;4955004;28;20426;-68
2022/11/04 13:41:28;;;;;;;10.30;7.93;;;11.20;99.90;;;;;;4962266;28;20456;-68
2022/11/04 13:44:00;;;;;;;9.57;6.67;;;11.10;99.90;;;;;;5004455;28;20434;-68